BBC Orinoco — V2DM2 — position and weather

sailwx.info

Track history (hours):
 
Tides and Currents Weather Stations Pressure Air Temp Water Temp Dewpoint Dewpoint Depression Visibility Wind Speed Wind Dir Waves Ship Positions

BBC Orinoco

Last reported at 2017-Oct-20 14:59 UTC. Time now 2017-Dec-14 02:39 UTC.
Position S 24°47' W 046°42'.
Warning: this ship's position is 54 days out of date.

Length 143 m; draft 8.2 m.

Type: Ship. MMSI: 305255000.

Date/timePositionNaut miles runAvg speedWind from/ knotsBaromVisibWave heightAir tempDewpointWater temp
2017-Oct-20 14:59S 24°47' W 046°42'1313.3
2017-Oct-20 14:00S 24°35' W 046°37'713.4
2017-Oct-20 13:30S 24°29' W 046°34'713.3
2017-Oct-20 13:01S 24°23' W 046°31'713.3
2017-Oct-20 12:31S 24°17' W 046°28'713.3
2017-Oct-20 12:00S 24°11' W 046°25'613.0
2017-Oct-20 11:30S 24°05' W 046°22'611.5
2017-Oct-20 11:00S 23°60' W 046°19'3 5.1
2017-Oct-20 10:28S 23°57' W 046°19'1 0.0
2017-Oct-18 22:41S 23°56' W 046°19'2 8.8
2017-Oct-18 22:30S 23°58' W 046°18'3 6.8
2017-Oct-18 22:00S 24°00' W 046°20'4 7.6
2017-Oct-18 21:30S 24°04' W 046°20'0 0.1
2017-Oct-18 20:56S 24°04' W 046°20'0 0.0
2017-Oct-18 20:25S 24°04' W 046°20'0 0.0
2017-Oct-18 19:55S 24°04' W 046°20'0 0.0
2017-Oct-18 19:28S 24°04' W 046°20'0 0.0
2017-Oct-18 18:58S 24°04' W 046°20'0 0.0
2017-Oct-18 18:25S 24°04' W 046°20'0 0.0
2017-Oct-18 18:00S 24°04' W 046°20'0 0.0
2017-Oct-18 17:30S 24°04' W 046°20'0 0.0
2017-Oct-18 17:00S 24°04' W 046°20'0 0.0
2017-Oct-18 16:30S 24°04' W 046°20'0 0.0
2017-Oct-18 16:00S 24°04' W 046°20'0 0.0
2017-Oct-18 15:23S 24°04' W 046°20'0 0.0
2017-Oct-18 14:59S 24°04' W 046°20'0 0.0
2017-Oct-18 13:56S 24°04' W 046°20'0 0.0
2017-Oct-18 13:28S 24°04' W 046°20'0 0.0
2017-Oct-18 12:52S 24°04' W 046°20'0 0.8
2017-Oct-18 12:31S 24°04' W 046°20'510.8
2017-Oct-18 12:00S 24°06' W 046°14'713.1
2017-Oct-18 11:29S 24°08' W 046°07'  
Track history (hours):
 
Tides and Currents Weather Stations Pressure Air Temp Water Temp Dewpoint Dewpoint Depression Visibility Wind Speed Wind Dir Waves Ship Positions

BBC Orinoco

Last reported at 2017-Oct-20 14:59 UTC. Time now 2017-Dec-14 02:39 UTC.
Position S 24°47' W 046°42'.
Warning: this ship's position is 54 days out of date.

Length 143 m; draft 8.2 m.

Type: Ship. MMSI: 305255000.

Date/timePositionNaut miles runAvg speedWind from/ knotsBaromVisibWave heightAir tempDewpointWater temp
2017-Oct-20 14:59S 24°47' W 046°42'1313.3
2017-Oct-20 14:00S 24°35' W 046°37'713.4
2017-Oct-20 13:30S 24°29' W 046°34'713.3
2017-Oct-20 13:01S 24°23' W 046°31'713.3
2017-Oct-20 12:31S 24°17' W 046°28'713.3
2017-Oct-20 12:00S 24°11' W 046°25'613.0
2017-Oct-20 11:30S 24°05' W 046°22'611.5
2017-Oct-20 11:00S 23°60' W 046°19'3 5.1
2017-Oct-20 10:28S 23°57' W 046°19'1 0.0
2017-Oct-18 22:41S 23°56' W 046°19'2 8.8
2017-Oct-18 22:30S 23°58' W 046°18'3 6.8
2017-Oct-18 22:00S 24°00' W 046°20'4 7.6
2017-Oct-18 21:30S 24°04' W 046°20'0 0.1
2017-Oct-18 20:56S 24°04' W 046°20'0 0.0
2017-Oct-18 20:25S 24°04' W 046°20'0 0.0
2017-Oct-18 19:55S 24°04' W 046°20'0 0.0
2017-Oct-18 19:28S 24°04' W 046°20'0 0.0
2017-Oct-18 18:58S 24°04' W 046°20'0 0.0
2017-Oct-18 18:25S 24°04' W 046°20'0 0.0
2017-Oct-18 18:00S 24°04' W 046°20'0 0.0
2017-Oct-18 17:30S 24°04' W 046°20'0 0.0
2017-Oct-18 17:00S 24°04' W 046°20'0 0.0
2017-Oct-18 16:30S 24°04' W 046°20'0 0.0
2017-Oct-18 16:00S 24°04' W 046°20'0 0.0
2017-Oct-18 15:23S 24°04' W 046°20'0 0.0
2017-Oct-18 14:59S 24°04' W 046°20'0 0.0
2017-Oct-18 13:56S 24°04' W 046°20'0 0.0
2017-Oct-18 13:28S 24°04' W 046°20'0 0.0
2017-Oct-18 12:52S 24°04' W 046°20'0 0.8
2017-Oct-18 12:31S 24°04' W 046°20'510.8
2017-Oct-18 12:00S 24°06' W 046°14'713.1
2017-Oct-18 11:29S 24°08' W 046°07'  

Dump ship's entire track history